Time,TemperatureF,DewpointF,PressureIn,WindDirection,WindDirectionDegrees,WindSpeedMPH,WindSpeedGustMPH,Humidity,HourlyPrecipIn,Conditions,Clouds,dailyrainin,SoftwareType,DateUTC
2013-07-12 05:30:00,66.1,61.8,29.99,North,355,8.1,8.1,86,0.00,SCT,FEW,0.00,WeatherDisplay:10.37,2013-07-12 10:30:00,
2013-07-12 05:31:00,66.1,61.8,29.99,North,355,8.1,8.1,86,0.00,SCT,FEW,0.00,WeatherDisplay:10.37,2013-07-12 10:31:00,
2013-07-12 05:36:00,66.1,61.8,30.00,ENE,71,2.3,2.3,86,0.00,SCT,FEW,0.00,WeatherDisplay:10.37,2013-07-12 10:36:00,
2013-07-12 05:41:00,66.1,61.8,30.00,NNW,341,0.0,0.0,86,0.00,SCT,FEW,0.00,WeatherDisplay:10.37,2013-07-12 10:41:00,
2013-07-12 05:46:00,66.0,61.7,30.00,ENE,65,2.3,2.3,86,0.00,SCT,FEW,0.00,WeatherDisplay:10.37,2013-07-12 10:46:00,
2013-07-12 05:51:00,66.0,61.7,30.00,ESE,107,1.2,1.2,86,0.00,FEW,,0.00,WeatherDisplay:10.37,2013-07-12 10:51:00,
2013-07-12 05:56:00,66.0,61.7,30.00,NNE,12,3.5,3.5,86,0.00,FEW,,0.00,WeatherDisplay:10.37,2013-07-12 10:56:00,
2013-07-12 06:01:00,66.0,62.0,30.00,NNE,32,3.5,3.5,87,0.00,FEW,,0.00,WeatherDisplay:10.37,2013-07-12 11:01:00,
2013-07-12 06:06:00,66.0,61.7,30.00,North,5,2.3,2.3,86,0.00,FEW,,0.00,WeatherDisplay:10.37,2013-07-12 11:06:00,
2013-07-12 06:11:00,66.1,62.1,30.01,North,360,0.0,0.0,87,0.00,FEW,,0.00,WeatherDisplay:10.37,2013-07-12 11:11:00,
2013-07-12 06:16:00,66.1,62.1,30.01,North,355,0.0,0.0,87,0.00,FEW,,0.00,WeatherDisplay:10.37,2013-07-12 11:16:00,
2013-07-12 06:21:00,66.2,62.2,30.01,NW,308,2.3,2.3,87,0.00,FEW,,0.00,WeatherDisplay:10.37,2013-07-12 11:21:00,
2013-07-12 06:26:00,66.3,62.3,30.01,ESE,110,1.2,1.2,87,0.00,FEW,,0.00,WeatherDisplay:10.37,2013-07-12 11:26:00,
2013-07-12 06:31:00,66.4,62.4,30.01,NE,34,5.8,5.8,87,0.00,FEW,,0.00,WeatherDisplay:10.37,2013-07-12 11:31:00,
2013-07-12 06:36:00,66.7,62.4,30.01,East,79,3.5,3.5,86,0.00,FEW,,0.00,WeatherDisplay:10.37,2013-07-12 11:36:00,
2013-07-12 06:41:00,67.0,62.3,30.01,NNW,344,4.6,4.6,85,0.00,FEW,,0.00,WeatherDisplay:10.37,2013-07-12 11:41:00,
2013-07-12 06:46:00,67.4,62.7,30.01,NE,36,2.3,2.3,85,0.00,FEW,,0.00,WeatherDisplay:10.37,2013-07-12 11:46:00,
2013-07-12 06:51:00,67.7,63.0,30.01,NNE,24,4.6,4.6,85,0.00,FEW,,0.00,WeatherDisplay:10.37,2013-07-12 11:51:00,
2013-07-12 06:56:00,67.9,62.5,30.01,ENE,67,5.8,5.8,83,0.00,FEW,,0.00,WeatherDisplay:10.37,2013-07-12 11:56:00,
2013-07-12 07:01:00,68.1,62.7,30.01,North,5,4.6,4.6,83,0.00,FEW,,0.00,WeatherDisplay:10.37,2013-07-12 12:01:00,
2013-07-12 07:06:00,68.3,62.9,30.01,East,82,5.8,5.8,83,0.00,FEW,,0.00,WeatherDisplay:10.37,2013-07-12 12:06:00,
2013-07-12 07:11:00,68.6,63.2,30.02,North,349,5.8,5.8,83,0.00,FEW,,0.00,WeatherDisplay:10.37,2013-07-12 12:11:00,
2013-07-12 07:16:00,68.8,63.1,30.02,East,88,3.2,3.2,82,0.00,FEW,,0.00,WeatherDisplay:10.37,2013-07-12 12:16:00,
2013-07-12 07:21:00,69.0,63.3,30.02,NE,40,6.9,6.9,82,0.00,FEW,,0.00,WeatherDisplay:10.37,2013-07-12 12:21:00,
2013-07-12 07:26:00,69.1,63.0,30.02,NE,52,5.8,5.8,81,0.00,FEW,,0.00,WeatherDisplay:10.37,2013-07-12 12:26:00,
2013-07-12 07:31:00,69.2,63.1,30.02,ENE,62,8.1,8.1,81,0.00,FEW,,0.00,WeatherDisplay:10.37,2013-07-12 12:31:00,
2013-07-12 07:36:00,69.4,63.3,30.02,NE,38,5.8,5.8,81,0.00,FEW,,0.00,WeatherDisplay:10.37,2013-07-12 12:36:00,
2013-07-12 07:41:00,69.6,63.5,30.03,NW,321,3.5,3.5,81,0.00,FEW,,0.00,WeatherDisplay:10.37,2013-07-12 12:41:00,
2013-07-12 07:46:00,69.8,63.3,30.03,East,80,5.8,5.8,80,0.00,FEW,,0.00,WeatherDisplay:10.37,2013-07-12 12:46:00,
2013-07-12 07:51:00,70.1,63.6,30.03,SSW,194,3.5,3.5,80,0.00,FEW,,0.00,WeatherDisplay:10.37,2013-07-12 12:51:00,
2013-07-12 07:56:00,70.5,63.7,30.03,NNE,23,6.9,6.9,79,0.00,FEW,,0.00,WeatherDisplay:10.37,2013-07-12 12:56:00,
2013-07-12 08:01:00,70.8,64.3,30.03,ENE,63,4.6,4.6,80,0.00,FEW,,0.00,WeatherDisplay:10.37,2013-07-12 13:01:00,
2013-07-12 08:06:00,71.0,63.8,30.03,NNW,333,8.1,8.1,78,0.00,FEW,,0.00,WeatherDisplay:10.37,2013-07-12 13:06:00,
2013-07-12 08:11:00,71.3,64.4,30.03,ENE,78,4.6,4.6,79,0.00,FEW,,0.00,WeatherDisplay:10.37,2013-07-12 13:11:00,
2013-07-12 08:16:00,71.7,64.8,30.03,ENE,69,5.8,5.8,79,0.00,CLR,FEW,0.00,WeatherDisplay:10.37,2013-07-12 13:16:00,
2013-07-12 08:21:00,71.7,64.8,30.03,North,351,6.9,6.9,79,0.00,CLR,FEW,0.00,WeatherDisplay:10.37,2013-07-12 13:21:00,
2013-07-12 08:26:00,71.9,65.4,30.03,NNE,27,3.5,3.5,80,0.00,CLR,FEW,0.00,WeatherDisplay:10.37,2013-07-12 13:26:00,
2013-07-12 08:31:00,72.2,65.0,30.03,NNW,344,3.5,3.5,78,0.00,CLR,FEW,0.00,WeatherDisplay:10.37,2013-07-12 13:31:00,
2013-07-12 08:36:00,72.5,65.6,30.04,ENE,58,8.1,8.1,79,0.00,CLR,FEW,0.00,WeatherDisplay:10.37,2013-07-12 13:36:00,
2013-07-12 08:37:00,72.5,65.6,30.04,SE,130,3.5,3.5,79,0.00,CLR,FEW,0.00,WeatherDisplay:10.37,2013-07-12 13:37:00,
2013-07-12 08:42:00,72.8,65.5,30.04,NNW,346,6.9,6.9,78,0.00,CLR,FEW,0.00,WeatherDisplay:10.37,2013-07-12 13:42:00,
2013-07-12 08:47:00,73.2,66.3,30.04,NE,40,5.3,5.3,79,0.00,CLR,FEW,0.00,WeatherDisplay:10.37,2013-07-12 13:47:00,
2013-07-12 08:52:00,73.6,66.3,30.04,ENE,78,3.5,3.5,78,0.00,CLR,FEW,0.00,WeatherDisplay:10.37,2013-07-12 13:52:00,
2013-07-12 08:57:00,73.9,66.6,30.04,East,79,3.5,3.5,78,0.00,CLR,FEW,0.00,WeatherDisplay:10.37,2013-07-12 13:57:00,
2013-07-12 09:02:00,74.3,67.0,30.04,NE,39,2.3,2.3,78,0.00,CLR,FEW,0.00,WeatherDisplay:10.37,2013-07-12 14:02:00,
2013-07-12 09:07:00,74.5,66.4,30.04,NNE,20,8.1,8.1,76,0.00,CLR,FEW,0.00,WeatherDisplay:10.37,2013-07-12 14:07:00,
2013-07-12 09:12:00,74.7,67.0,30.04,ENE,67,8.1,8.1,77,0.00,CLR,FEW,0.00,WeatherDisplay:10.37,2013-07-12 14:12:00,
2013-07-12 09:17:00,74.9,67.6,30.04,NE,51,4.6,4.6,78,0.00,CLR,FEW,0.00,WeatherDisplay:10.37,2013-07-12 14:17:00,
2013-07-12 09:22:00,75.0,66.1,30.03,NNW,347,6.9,6.9,74,0.00,CLR,FEW,0.00,WeatherDisplay:10.37,2013-07-12 14:22:00,
2013-07-12 09:27:00,74.9,66.8,30.03,NE,40,8.1,8.1,76,0.00,CLR,FEW,0.00,WeatherDisplay:10.37,2013-07-12 14:27:00,
2013-07-12 09:32:00,75.1,67.4,30.03,WNW,291,2.3,2.3,77,0.00,CLR,FEW,0.00,WeatherDisplay:10.37,2013-07-12 14:32:00,
2013-07-12 09:37:00,75.3,66.8,30.03,NE,39,5.8,5.8,75,0.00,CLR,FEW,0.00,WeatherDisplay:10.37,2013-07-12 14:37:00,
2013-07-12 09:42:00,75.6,67.1,30.03,North,355,10.4,10.4,75,0.00,CLR,FEW,0.00,WeatherDisplay:10.37,2013-07-12 14:42:00,
2013-07-12 09:47:00,75.8,67.3,30.03,NNE,28,5.8,5.8,75,0.00,CLR,FEW,0.00,WeatherDisplay:10.37,2013-07-12 14:47:00,
2013-07-12 09:52:00,76.1,67.2,30.04,NNE,32,8.1,8.1,74,0.00,CLR,FEW,0.00,WeatherDisplay:10.37,2013-07-12 14:52:00,
2013-07-12 09:57:00,76.4,67.5,30.04,NNW,339,4.6,4.6,74,0.00,CLR,FEW,0.00,WeatherDisplay:10.37,2013-07-12 14:57:00,
2013-07-12 10:02:00,76.6,66.9,30.04,NE,39,6.9,6.9,72,0.00,CLR,FEW,0.00,WeatherDisplay:10.37,2013-07-12 15:02:00,
2013-07-12 10:07:00,76.7,67.4,30.04,NW,319,5.8,5.8,73,0.00,CLR,FEW,0.00,WeatherDisplay:10.37,2013-07-12 15:07:00,
2013-07-12 10:12:00,76.8,67.5,30.04,SE,132,8.1,8.1,73,0.00,CLR,FEW,0.00,WeatherDisplay:10.37,2013-07-12 15:12:00,
2013-07-12 10:17:00,77.0,67.3,30.04,ENE,68,5.8,5.8,72,0.00,CLR,FEW,0.00,WeatherDisplay:10.37,2013-07-12 15:17:00,
2013-07-12 10:22:00,77.4,67.3,30.04,North,11,2.3,2.3,71,0.00,CLR,FEW,0.00,WeatherDisplay:10.37,2013-07-12 15:22:00,
2013-07-12 10:27:00,77.8,67.2,30.04,NNW,342,4.6,4.6,70,0.00,CLR,FEW,0.00,WeatherDisplay:10.37,2013-07-12 15:27:00,
2013-07-12 10:32:00,78.1,67.1,30.04,East,96,8.1,8.1,69,0.00,CLR,FEW,0.00,WeatherDisplay:10.37,2013-07-12 15:32:00,
2013-07-12 10:37:00,78.3,66.9,30.03,NE,36,8.1,8.1,68,0.00,CLR,FEW,0.00,WeatherDisplay:10.37,2013-07-12 15:37:00,
2013-07-12 10:42:00,78.4,66.5,30.04,North,355,8.1,8.1,67,0.00,CLR,FEW,0.00,WeatherDisplay:10.37,2013-07-12 15:42:00,
2013-07-12 10:47:00,78.1,66.2,30.04,North,10,9.2,9.2,67,0.00,CLR,FEW,0.00,WeatherDisplay:10.37,2013-07-12 15:47:00,
2013-07-12 10:52:00,77.9,66.1,30.03,NNE,29,8.1,8.1,67,0.00,CLR,FEW,0.00,WeatherDisplay:10.37,2013-07-12 15:52:00,
2013-07-12 10:57:00,78.3,66.4,30.03,ESE,111,5.8,5.8,67,0.00,CLR,FEW,0.00,WeatherDisplay:10.37,2013-07-12 15:57:00,
2013-07-12 11:02:00,78.5,65.3,30.03,NNE,28,8.1,8.1,64,0.00,CLR,FEW,0.00,WeatherDisplay:10.37,2013-07-12 16:02:00,
2013-07-12 11:07:00,78.7,65.9,30.03,ENE,61,8.1,8.1,65,0.00,CLR,FEW,0.00,WeatherDisplay:10.37,2013-07-12 16:07:00,
2013-07-12 11:12:00,79.0,64.9,30.03,NE,43,8.1,8.1,62,0.00,CLR,FEW,0.00,WeatherDisplay:10.37,2013-07-12 16:12:00,
2013-07-12 11:17:00,79.1,65.4,30.03,NNE,22,6.9,6.9,63,0.00,CLR,FEW,0.00,WeatherDisplay:10.37,2013-07-12 16:17:00,
2013-07-12 11:22:00,79.5,67.1,30.03,North,360,8.1,8.1,66,0.00,CLR,FEW,0.00,WeatherDisplay:10.37,2013-07-12 16:22:00,
2013-07-12 11:27:00,79.9,65.2,30.02,NW,322,5.8,5.8,61,0.00,CLR,FEW,0.00,WeatherDisplay:10.37,2013-07-12 16:27:00,
2013-07-12 11:32:00,80.3,66.1,30.02,ENE,58,8.1,8.1,62,0.00,CLR,FEW,0.00,WeatherDisplay:10.37,2013-07-12 16:32:00,
2013-07-12 11:37:00,80.4,65.2,30.02,NNE,15,9.2,9.2,60,0.00,CLR,FEW,0.00,WeatherDisplay:10.37,2013-07-12 16:37:00,
2013-07-12 11:42:00,79.6,65.0,30.02,North,5,6.9,6.9,61,0.00,CLR,FEW,0.00,WeatherDisplay:10.37,2013-07-12 16:42:00,
2013-07-12 11:47:00,79.5,63.4,30.02,North,10,5.8,5.8,58,0.00,CLR,FEW,0.00,WeatherDisplay:10.37,2013-07-12 16:47:00,
2013-07-12 11:53:00,79.8,64.2,30.02,NNE,27,8.1,8.1,59,0.00,CLR,FEW,0.00,WeatherDisplay:10.37,2013-07-12 16:53:00,
2013-07-12 11:58:00,80.2,66.0,30.02,NE,41,6.9,6.9,62,0.00,CLR,FEW,0.00,WeatherDisplay:10.37,2013-07-12 16:58:00,
2013-07-12 12:03:00,80.5,65.3,30.02,NNE,13,6.9,6.9,60,0.00,CLR,FEW,0.00,WeatherDisplay:10.37,2013-07-12 17:03:00,
2013-07-12 12:08:00,80.3,62.7,30.02,NNE,30,8.1,8.1,55,0.00,CLR,FEW,0.00,WeatherDisplay:10.37,2013-07-12 17:08:00,
2013-07-12 12:13:00,80.3,64.2,30.02,ENE,74,6.9,6.9,58,0.00,CLR,FEW,0.00,WeatherDisplay:10.37,2013-07-12 17:13:00,
2013-07-12 12:18:00,80.5,63.4,30.02,NE,53,8.1,8.1,56,0.00,FEW,,0.00,WeatherDisplay:10.37,2013-07-12 17:18:00,
2013-07-12 12:24:00,80.6,62.9,30.01,North,360,8.1,8.1,55,0.00,FEW,,0.00,WeatherDisplay:10.37,2013-07-12 17:24:00,
2013-07-12 12:29:00,80.8,64.1,30.01,North,5,7.5,7.5,57,0.00,FEW,,0.00,WeatherDisplay:10.37,2013-07-12 17:29:00,
2013-07-12 12:35:00,80.9,62.7,30.02,SE,127,6.9,6.9,54,0.00,FEW,,0.00,WeatherDisplay:10.37,2013-07-12 17:35:00,
2013-07-12 12:40:00,81.0,63.3,30.01,ESE,119,5.8,5.9,55,0.00,FEW,,0.00,WeatherDisplay:10.37,2013-07-12 17:40:00,
2013-07-12 12:45:00,81.0,62.8,30.01,NW,324,5.8,5.8,54,0.00,FEW,,0.00,WeatherDisplay:10.37,2013-07-12 17:45:00,
2013-07-12 12:50:00,81.0,63.8,30.01,SE,124,4.6,4.6,56,0.00,CLR,FEW,0.00,WeatherDisplay:10.37,2013-07-12 17:50:00,
2013-07-12 12:55:00,81.3,63.6,30.02,NE,53,9.2,9.2,55,0.00,CLR,FEW,0.00,WeatherDisplay:10.37,2013-07-12 17:55:00,
2013-07-12 13:00:00,81.5,63.3,30.01,East,96,8.1,8.1,54,0.00,CLR,FEW,0.00,WeatherDisplay:10.37,2013-07-12 18:00:00,
2013-07-12 13:05:00,81.6,62.8,30.01,NNE,13,8.1,8.1,53,0.00,CLR,FEW,0.00,WeatherDisplay:10.37,2013-07-12 18:05:00,
2013-07-12 13:10:00,81.5,62.7,30.01,North,5,5.8,5.8,53,0.00,CLR,FEW,0.00,WeatherDisplay:10.37,2013-07-12 18:10:00,
2013-07-12 13:16:00,81.6,62.3,30.01,NE,46,8.1,8.1,52,0.00,CLR,FEW,0.00,WeatherDisplay:10.37,2013-07-12 18:16:00,
2013-07-12 13:22:00,81.8,63.0,30.01,SSE,164,8.1,8.1,53,0.00,CLR,FEW,0.00,WeatherDisplay:10.37,2013-07-12 18:22:00,
2013-07-12 13:27:00,82.0,63.7,30.01,NNE,13,6.9,6.9,54,0.00,CLR,FEW,0.00,WeatherDisplay:10.37,2013-07-12 18:27:00,
2013-07-12 13:32:00,82.1,62.2,30.02,West,277,6.9,6.9,51,0.00,CLR,FEW,0.00,WeatherDisplay:10.37,2013-07-12 18:32:00,
2013-07-12 13:37:00,82.1,61.0,30.02,NW,325,5.8,5.8,49,0.00,CLR,FEW,0.00,WeatherDisplay:10.37,2013-07-12 18:37:00,
2013-07-12 13:42:00,82.2,62.3,30.02,NE,54,5.8,5.8,51,0.00,CLR,FEW,0.00,WeatherDisplay:10.37,2013-07-12 18:42:00,
2013-07-12 13:47:00,82.5,60.8,30.01,ESE,105,5.8,5.8,48,0.00,CLR,FEW,0.00,WeatherDisplay:10.37,2013-07-12 18:47:00,
2013-07-12 13:53:00,82.7,62.2,30.01,NE,43,2.3,2.3,50,0.00,CLR,FEW,0.00,WeatherDisplay:10.37,2013-07-12 18:53:00,
2013-07-12 13:58:00,83.0,63.6,30.01,NE,39,4.3,4.3,52,0.00,CLR,FEW,0.00,WeatherDisplay:10.37,2013-07-12 18:58:00,
2013-07-12 14:03:00,82.9,62.4,30.01,North,355,5.8,5.8,50,0.00,CLR,FEW,0.00,WeatherDisplay:10.37,2013-07-12 19:03:00,
2013-07-12 14:09:00,83.2,62.1,30.01,SSE,148,2.3,2.4,49,0.00,CLR,FEW,0.00,WeatherDisplay:10.37,2013-07-12 19:09:00,
2013-07-12 14:14:00,83.1,62.0,30.00,North,360,5.8,5.8,49,0.00,CLR,FEW,0.00,WeatherDisplay:10.37,2013-07-12 19:14:00,
2013-07-12 14:19:00,83.1,62.0,30.01,ENE,78,4.6,4.6,49,0.00,CLR,FEW,0.00,WeatherDisplay:10.37,2013-07-12 19:19:00,
2013-07-12 14:24:00,83.1,61.4,30.01,NE,48,6.9,6.9,48,0.00,CLR,FEW,0.00,WeatherDisplay:10.37,2013-07-12 19:24:00,
2013-07-12 14:29:00,83.3,64.4,30.01,North,351,9.2,9.2,53,0.00,CLR,FEW,0.00,WeatherDisplay:10.37,2013-07-12 19:29:00,
2013-07-12 14:35:00,83.5,61.7,30.01,NNE,32,5.8,5.8,48,0.00,CLR,FEW,0.00,WeatherDisplay:10.37,2013-07-12 19:35:00,
2013-07-12 14:40:00,83.5,61.1,30.00,NNW,346,5.8,5.8,47,0.00,CLR,FEW,0.00,WeatherDisplay:10.37,2013-07-12 19:40:00,
2013-07-12 14:45:00,83.3,60.4,30.00,ESE,113,5.8,5.8,46,0.00,CLR,FEW,0.00,WeatherDisplay:10.37,2013-07-12 19:45:00,
2013-07-12 14:50:00,83.1,61.4,30.00,NE,48,6.9,6.9,48,0.00,CLR,FEW,0.00,WeatherDisplay:10.37,2013-07-12 19:50:00,
2013-07-12 14:55:00,83.2,63.2,30.00,NNW,341,4.3,4.3,51,0.00,CLR,FEW,0.00,WeatherDisplay:10.37,2013-07-12 19:55:00,
2013-07-12 15:01:00,83.2,62.1,30.00,NE,55,5.8,5.8,49,0.00,CLR,FEW,0.00,WeatherDisplay:10.37,2013-07-12 20:01:00,
2013-07-12 15:06:00,83.2,62.6,30.00,NE,44,8.1,8.1,50,0.00,CLR,FEW,0.00,WeatherDisplay:10.37,2013-07-12 20:06:00,
2013-07-12 15:11:00,83.2,61.5,30.00,NNE,31,5.8,5.8,48,0.00,CLR,FEW,0.00,WeatherDisplay:10.37,2013-07-12 20:11:00,
2013-07-12 15:16:00,83.2,59.0,30.00,NW,316,8.6,8.6,44,0.00,CLR,FEW,0.00,WeatherDisplay:10.37,2013-07-12 20:16:00,
2013-07-12 15:22:00,83.0,60.7,30.00,East,88,5.8,5.8,47,0.00,CLR,FEW,0.00,WeatherDisplay:10.37,2013-07-12 20:22:00,
2013-07-12 15:27:00,82.9,60.0,29.99,NNE,27,8.1,8.1,46,0.00,CLR,FEW,0.00,WeatherDisplay:10.37,2013-07-12 20:27:00,
2013-07-12 15:33:00,82.9,60.6,30.00,NE,34,8.1,8.1,47,0.00,CLR,FEW,0.00,WeatherDisplay:10.37,2013-07-12 20:33:00,
2013-07-12 15:39:00,82.9,59.4,30.00,ENE,58,3.5,3.5,45,0.00,CLR,FEW,0.00,WeatherDisplay:10.37,2013-07-12 20:39:00,
2013-07-12 15:45:00,83.3,62.7,30.00,ENE,62,6.9,6.9,50,0.00,CLR,FEW,0.00,WeatherDisplay:10.37,2013-07-12 20:45:00,
2013-07-12 15:50:00,83.5,61.1,30.00,NNW,331,6.9,6.9,47,0.00,CLR,FEW,0.00,WeatherDisplay:10.37,2013-07-12 20:50:00,
2013-07-12 15:55:00,83.4,61.7,30.00,NNW,346,8.1,8.1,48,0.00,CLR,FEW,0.00,WeatherDisplay:10.37,2013-07-12 20:55:00,
2013-07-12 16:00:00,83.3,62.1,29.99,East,79,6.9,6.9,49,0.00,CLR,FEW,0.00,WeatherDisplay:10.37,2013-07-12 21:00:00,
2013-07-12 16:05:00,83.3,62.1,29.99,ENE,63,9.2,9.2,49,0.00,CLR,FEW,0.00,WeatherDisplay:10.37,2013-07-12 21:05:00,
2013-07-12 16:11:00,83.0,61.3,29.99,NNE,24,5.8,5.8,48,0.00,CLR,FEW,0.00,WeatherDisplay:10.37,2013-07-12 21:11:00,
2013-07-12 16:17:00,83.0,63.0,29.99,NNE,17,8.1,8.1,51,0.00,CLR,FEW,0.00,WeatherDisplay:10.37,2013-07-12 21:17:00,
2013-07-12 16:22:00,83.0,61.9,29.99,North,5,9.2,9.2,49,0.00,CLR,FEW,0.00,WeatherDisplay:10.37,2013-07-12 21:22:00,
2013-07-12 16:27:00,82.9,62.9,29.99,NW,312,5.8,5.8,51,0.00,CLR,FEW,0.00,WeatherDisplay:10.37,2013-07-12 21:27:00,
2013-07-12 16:32:00,82.9,62.9,29.99,NW,304,5.8,5.8,51,0.00,CLR,FEW,0.00,WeatherDisplay:10.37,2013-07-12 21:32:00,
2013-07-12 16:37:00,83.1,63.7,29.99,NNE,30,6.9,6.9,52,0.00,CLR,FEW,0.00,WeatherDisplay:10.37,2013-07-12 21:37:00,
2013-07-12 16:42:00,83.2,64.3,29.99,ESE,104,4.6,4.6,53,0.00,CLR,FEW,0.00,WeatherDisplay:10.37,2013-07-12 21:42:00,
2013-07-12 16:47:00,83.3,63.3,29.99,NNE,25,3.5,3.5,51,0.00,CLR,FEW,0.00,WeatherDisplay:10.37,2013-07-12 21:47:00,
2013-07-12 16:52:00,83.2,62.6,29.99,North,360,9.2,9.2,50,0.00,CLR,FEW,0.00,WeatherDisplay:10.37,2013-07-12 21:52:00,
2013-07-12 16:57:00,83.3,64.9,29.99,NNE,14,5.8,5.8,54,0.00,CLR,FEW,0.00,WeatherDisplay:10.37,2013-07-12 21:57:00,
2013-07-12 17:03:00,83.3,63.3,29.99,ENE,63,4.6,4.6,51,0.00,CLR,FEW,0.00,WeatherDisplay:10.37,2013-07-12 22:03:00,
2013-07-12 17:08:00,83.1,63.1,29.99,NNE,28,3.5,3.5,51,0.00,CLR,FEW,0.00,WeatherDisplay:10.37,2013-07-12 22:08:00,
2013-07-12 17:13:00,83.0,64.1,29.98,NNW,342,5.8,5.8,53,0.00,CLR,FEW,0.00,WeatherDisplay:10.37,2013-07-12 22:13:00,
2013-07-12 17:18:00,82.9,63.5,29.98,NNE,32,3.2,3.2,52,0.00,CLR,FEW,0.00,WeatherDisplay:10.37,2013-07-12 22:18:00,
2013-07-12 17:24:00,82.7,62.2,29.98,East,94,5.8,5.8,50,0.00,CLR,FEW,0.00,WeatherDisplay:10.37,2013-07-12 22:24:00,
2013-07-12 17:29:00,82.6,62.6,29.98,North,360,5.8,5.8,51,0.00,CLR,FEW,0.00,WeatherDisplay:10.37,2013-07-12 22:29:00,
2013-07-12 17:34:00,82.5,62.5,29.97,NNE,19,6.4,6.4,51,0.00,CLR,FEW,0.00,WeatherDisplay:10.37,2013-07-12 22:34:00,
2013-07-12 17:39:00,82.7,63.3,29.97,North,349,5.3,5.3,52,0.00,CLR,FEW,0.00,WeatherDisplay:10.37,2013-07-12 22:39:00,
2013-07-12 17:44:00,82.6,63.2,29.97,NNE,28,6.9,6.9,52,0.00,CLR,FEW,0.00,WeatherDisplay:10.37,2013-07-12 22:44:00,
2013-07-12 17:49:00,82.5,63.1,29.97,ENE,61,3.5,3.5,52,0.00,CLR,FEW,0.00,WeatherDisplay:10.37,2013-07-12 22:49:00,
2013-07-12 17:55:00,82.4,62.5,29.97,North,5,4.6,4.6,51,0.00,CLR,FEW,0.00,WeatherDisplay:10.37,2013-07-12 22:55:00,
2013-07-12 18:00:00,82.3,62.9,29.97,NNW,347,3.5,3.5,52,0.00,CLR,FEW,0.00,WeatherDisplay:10.37,2013-07-12 23:00:00,
2013-07-12 18:06:00,82.1,62.2,29.97,ENE,58,5.8,5.8,51,0.00,CLR,FEW,0.00,WeatherDisplay:10.37,2013-07-12 23:06:00,
2013-07-12 18:12:00,81.9,63.1,29.97,NNW,332,4.3,4.3,53,0.00,CLR,FEW,0.00,WeatherDisplay:10.37,2013-07-12 23:12:00,
2013-07-12 18:17:00,81.8,63.0,29.97,SSE,151,3.5,3.5,53,0.00,CLR,FEW,0.00,WeatherDisplay:10.37,2013-07-12 23:17:00,
2013-07-12 18:22:00,81.6,62.8,29.97,North,10,4.6,4.6,53,0.00,CLR,FEW,0.00,WeatherDisplay:10.37,2013-07-12 23:22:00,
2013-07-12 18:27:00,81.1,62.9,29.97,North,5,3.5,3.5,54,0.00,CLR,FEW,0.00,WeatherDisplay:10.37,2013-07-12 23:27:00,
2013-07-12 18:32:00,80.7,63.0,29.98,North,355,4.6,4.6,55,0.00,CLR,FEW,0.00,WeatherDisplay:10.37,2013-07-12 23:32:00,
2013-07-12 18:38:00,80.4,63.8,29.98,North,11,2.3,2.3,57,0.00,CLR,FEW,0.00,WeatherDisplay:10.37,2013-07-12 23:38:00,
2013-07-12 18:43:00,80.2,63.6,29.98,North,360,3.5,3.5,57,0.00,CLR,FEW,0.00,WeatherDisplay:10.37,2013-07-12 23:43:00,
2013-07-12 18:49:00,79.9,63.8,29.98,North,11,3.2,3.2,58,0.00,CLR,FEW,0.00,WeatherDisplay:10.37,2013-07-12 23:49:00,
2013-07-12 18:54:00,79.6,63.0,29.98,NE,40,4.6,4.6,57,0.00,CLR,FEW,0.00,WeatherDisplay:10.37,2013-07-12 23:54:00,
2013-07-12 18:59:00,79.3,63.2,29.98,North,5,3.5,3.5,58,0.00,CLR,FEW,0.00,WeatherDisplay:10.37,2013-07-12 23:59:00,
2013-07-12 19:04:00,79.1,62.6,29.98,NNE,15,3.5,3.5,57,0.00,CLR,FEW,0.00,WeatherDisplay:10.37,2013-07-13 00:04:00,
2013-07-12 19:09:00,78.9,62.9,29.98,North,11,5.8,5.8,58,0.00,CLR,FEW,0.00,WeatherDisplay:10.37,2013-07-13 00:09:00,
2013-07-12 19:15:00,78.7,62.2,29.98,NNE,32,2.3,2.3,57,0.00,CLR,FEW,0.00,WeatherDisplay:10.37,2013-07-13 00:15:00,
2013-07-12 19:21:00,78.5,62.0,29.98,NNE,32,3.5,3.5,57,0.00,CLR,FEW,0.00,WeatherDisplay:10.37,2013-07-13 00:21:00,
2013-07-12 19:26:00,78.3,62.3,29.98,North,5,4.6,4.6,58,0.00,CLR,FEW,0.00,WeatherDisplay:10.37,2013-07-13 00:26:00,
2013-07-12 19:31:00,78.1,62.1,29.98,NNE,27,4.6,4.6,58,0.00,CLR,FEW,0.00,WeatherDisplay:10.37,2013-07-13 00:31:00,
2013-07-12 19:37:00,77.8,62.3,29.98,NW,323,2.3,0.0,59,0.00,CLR,FEW,0.00,WeatherDisplay:10.37,2013-07-13 00:37:00,
2013-07-12 19:42:00,77.6,63.1,29.98,NNW,333,1.2,0.0,61,0.00,CLR,FEW,0.00,WeatherDisplay:10.37,2013-07-13 00:42:00,
2013-07-12 19:48:00,77.3,63.3,29.98,NNW,333,0.0,0.0,62,0.00,CLR,FEW,0.00,WeatherDisplay:10.37,2013-07-13 00:48:00,
2013-07-12 19:53:00,76.9,62.9,29.98,NNW,333,0.0,0.0,62,0.00,CLR,FEW,0.00,WeatherDisplay:10.37,2013-07-13 00:53:00,
2013-07-12 19:58:00,76.4,63.3,29.98,NNW,333,0.0,0.0,64,0.00,CLR,FEW,0.00,WeatherDisplay:10.37,2013-07-13 00:58:00,
2013-07-12 20:03:00,75.8,63.2,29.99,NNW,333,1.2,1.2,65,0.00,CLR,FEW,0.00,WeatherDisplay:10.37,2013-07-13 01:03:00,
2013-07-12 20:08:00,75.5,64.2,29.99,NNW,333,0.0,0.0,68,0.00,CLR,FEW,0.00,WeatherDisplay:10.37,2013-07-13 01:08:00,
2013-07-12 20:14:00,75.0,64.5,29.99,NNW,333,1.2,1.2,70,0.00,CLR,FEW,0.00,WeatherDisplay:10.37,2013-07-13 01:14:00,
2013-07-12 20:19:00,74.2,64.2,29.99,NNW,333,0.0,0.0,71,0.00,CLR,FEW,0.00,WeatherDisplay:10.37,2013-07-13 01:19:00,
2013-07-12 20:24:00,73.7,63.7,29.98,NNW,333,0.0,0.0,71,0.00,CLR,FEW,0.00,WeatherDisplay:10.37,2013-07-13 01:24:00,
2013-07-12 20:30:00,73.1,63.9,29.99,NNW,333,0.0,0.0,73,0.00,CLR,FEW,0.00,WeatherDisplay:10.37,2013-07-13 01:30:00,
2013-07-12 20:35:00,72.6,63.8,29.99,NNW,333,0.0,0.0,74,0.00,CLR,FEW,0.00,WeatherDisplay:10.37,2013-07-13 01:35:00,
2013-07-12 20:41:00,72.1,64.1,29.98,NNW,333,0.0,0.0,76,0.00,CLR,FEW,0.00,WeatherDisplay:10.37,2013-07-13 01:41:00,
2013-07-12 20:46:00,71.7,64.5,29.99,NNW,333,0.0,0.0,78,0.00,CLR,FEW,0.00,WeatherDisplay:10.37,2013-07-13 01:46:00,
2013-07-12 20:51:00,71.2,64.4,29.99,NNW,333,0.0,0.0,79,0.00,CLR,FEW,0.00,WeatherDisplay:10.37,2013-07-13 01:51:00,
2013-07-12 20:56:00,70.9,64.4,29.99,NNW,333,0.0,0.0,80,0.00,CLR,FEW,0.00,WeatherDisplay:10.37,2013-07-13 01:56:00,
2013-07-12 21:02:00,70.6,64.5,29.99,NNW,333,0.0,0.0,81,0.00,CLR,FEW,0.00,WeatherDisplay:10.37,2013-07-13 02:02:00,
2013-07-12 21:08:00,70.2,64.4,29.99,NNW,333,0.0,0.0,82,0.00,CLR,FEW,0.00,WeatherDisplay:10.37,2013-07-13 02:08:00,
2013-07-12 21:13:00,70.0,64.6,29.99,NNW,333,0.0,0.0,83,0.00,CLR,FEW,0.00,WeatherDisplay:10.37,2013-07-13 02:13:00,
2013-07-12 21:18:00,69.7,64.3,30.00,NNW,333,0.0,0.0,83,0.00,CLR,FEW,0.00,WeatherDisplay:10.37,2013-07-13 02:18:00,
2013-07-12 21:24:00,69.5,64.5,30.00,NNW,333,0.0,0.0,84,0.00,CLR,FEW,0.00,WeatherDisplay:10.37,2013-07-13 02:24:00,
2013-07-12 21:29:00,69.3,64.3,30.00,NNW,333,0.0,0.0,84,0.00,CLR,FEW,0.00,WeatherDisplay:10.37,2013-07-13 02:29:00,
2013-07-12 21:34:00,69.0,64.0,30.00,NNW,333,0.0,0.0,84,0.00,CLR,FEW,0.00,WeatherDisplay:10.37,2013-07-13 02:34:00,
2013-07-12 21:39:00,68.9,64.2,30.00,NNW,333,0.0,0.0,85,0.00,CLR,FEW,0.00,WeatherDisplay:10.37,2013-07-13 02:39:00,
2013-07-12 21:44:00,68.8,64.1,30.00,NNW,333,0.0,0.0,85,0.00,CLR,FEW,0.00,WeatherDisplay:10.37,2013-07-13 02:44:00,
2013-07-12 21:49:00,68.8,64.4,30.00,NNW,333,0.0,0.0,86,0.00,CLR,FEW,0.00,WeatherDisplay:10.37,2013-07-13 02:49:00,
2013-07-12 21:54:00,68.6,63.9,30.01,NNW,333,0.0,0.0,85,0.00,CLR,FEW,0.00,WeatherDisplay:10.37,2013-07-13 02:54:00,
2013-07-12 22:00:00,68.5,64.1,30.01,NNW,333,0.0,0.0,86,0.00,CLR,FEW,0.00,WeatherDisplay:10.37,2013-07-13 03:00:00,
2013-07-12 22:05:00,68.4,63.7,30.00,NNW,333,0.0,0.0,85,0.00,CLR,FEW,0.00,WeatherDisplay:10.37,2013-07-13 03:05:00,
2013-07-12 22:10:00,68.2,63.5,30.01,NNW,333,0.0,0.0,85,0.00,CLR,FEW,0.00,WeatherDisplay:10.37,2013-07-13 03:10:00,
2013-07-12 22:16:00,68.0,63.7,30.00,NNW,333,0.0,0.0,86,0.00,CLR,FEW,0.00,WeatherDisplay:10.37,2013-07-13 03:16:00,
2013-07-12 22:21:00,67.9,63.6,30.00,NNW,333,0.0,0.0,86,0.00,CLR,FEW,0.00,WeatherDisplay:10.37,2013-07-13 03:21:00,
2013-07-12 22:26:00,67.8,63.5,30.01,NNW,333,0.0,0.0,86,0.00,CLR,FEW,0.00,WeatherDisplay:10.37,2013-07-13 03:26:00,
2013-07-12 22:31:00,67.6,63.3,30.01,NNW,333,0.0,0.0,86,0.00,CLR,FEW,0.00,WeatherDisplay:10.37,2013-07-13 03:31:00,
2013-07-12 22:36:00,67.4,63.1,30.01,NNW,333,0.0,0.0,86,0.00,CLR,FEW,0.00,WeatherDisplay:10.37,2013-07-13 03:36:00,
2013-07-12 22:41:00,67.1,63.1,30.01,NNW,333,0.0,0.0,87,0.00,CLR,FEW,0.00,WeatherDisplay:10.37,2013-07-13 03:41:00,
2013-07-12 22:46:00,67.1,63.1,30.01,NNW,333,0.0,0.0,87,0.00,CLR,FEW,0.00,WeatherDisplay:10.37,2013-07-13 03:46:00,
2013-07-12 22:52:00,66.9,62.9,30.01,NNW,333,0.0,0.0,87,0.00,CLR,FEW,0.00,WeatherDisplay:10.37,2013-07-13 03:52:00,
2013-07-12 22:57:00,66.6,62.6,30.01,NNW,333,0.0,0.0,87,0.00,CLR,FEW,0.00,WeatherDisplay:10.37,2013-07-13 03:57:00,
2013-07-12 23:01:00,66.2,62.2,30.01,NNW,333,0.0,0.0,87,0.00,CLR,FEW,0.00,WeatherDisplay:10.37,2013-07-13 04:01:00,
2013-07-12 23:02:00,66.2,62.2,30.01,NNW,333,0.0,0.0,87,0.00,CLR,FEW,0.00,WeatherDisplay:10.37,2013-07-13 04:02:00,
2013-07-12 23:07:00,65.9,62.2,30.01,NNW,333,0.0,0.0,88,0.00,CLR,FEW,0.00,WeatherDisplay:10.37,2013-07-13 04:07:00,
2013-07-12 23:12:00,65.7,62.4,30.01,NNW,333,0.0,0.0,89,0.00,CLR,FEW,0.00,WeatherDisplay:10.37,2013-07-13 04:12:00,
2013-07-12 23:17:00,65.6,62.6,30.01,NNW,333,0.0,0.0,90,0.00,CLR,FEW,0.00,WeatherDisplay:10.37,2013-07-13 04:17:00,
2013-07-12 23:22:00,65.4,62.4,30.01,NNW,333,0.0,0.0,90,0.00,CLR,FEW,0.00,WeatherDisplay:10.37,2013-07-13 04:22:00,
2013-07-12 23:27:00,65.4,62.4,30.01,NNW,333,0.0,0.0,90,0.00,CLR,FEW,0.00,WeatherDisplay:10.37,2013-07-13 04:27:00,
2013-07-12 23:32:00,65.3,62.3,30.01,NNW,333,0.0,0.0,90,0.00,CLR,FEW,0.00,WeatherDisplay:10.37,2013-07-13 04:32:00,
2013-07-12 23:37:00,65.1,62.4,30.01,NNW,333,0.0,0.0,91,0.00,CLR,FEW,0.00,WeatherDisplay:10.37,2013-07-13 04:37:00,
2013-07-12 23:42:00,64.9,62.5,30.01,NNW,333,0.0,0.0,92,0.00,CLR,FEW,0.00,WeatherDisplay:10.37,2013-07-13 04:42:00,
2013-07-12 23:47:00,64.7,62.3,30.01,NNW,333,0.0,0.0,92,0.00,CLR,FEW,0.00,WeatherDisplay:10.37,2013-07-13 04:47:00,
2013-07-12 23:52:00,64.7,62.6,30.02,NNW,333,0.0,0.0,93,0.00,CLR,FEW,0.00,WeatherDisplay:10.37,2013-07-13 04:52:00,
2013-07-12 23:57:00,64.5,62.4,30.01,NNW,333,0.0,0.0,93,0.00,CLR,FEW,0.00,WeatherDisplay:10.37,2013-07-13 04:57:00,